Terminal Aerodrome Forecast
Issued by NWS La Crosse, WI

Home | Current Version | Previous Version | Text Only | Print | Product List | Glossary On
Versions: 1 2 3 4 5 6 7 8 9 10 11 12 13 14 15 16 17 18 19 20 21 22 23 24 25 26 27 28 29 30 31 32 33 34 35 36
000
FTUS43 KARX 101903 AAA
TAFRST
TAF AMD
KRST 101903Z 1019/1118 13010KT 1 1/2SM -SN SCT008 BKN025
     FM102200 13010KT 1 1/2SM -SN SCT006 BKN015
     FM111700 13008KT 1SM -SN OVC008=

USA.gov is the U.S. government's official web portal to all federal, state and local government web resources and services.